Terminal Aerodrome Forecast
Issued by NWS Boston, MA

Home | Current Version | Previous Version | Text Only | Print | Product List | Glossary Off
Versions: 1 2 3 4 5 6 7 8 9 10 11 12 13 14 15 16 17 18 19 20 21 22 23 24 25 26 27 28 29 30 31 32 33 34 35 36 37 38 39 40 41 42 43 44 45 46
000 FTUS41 KBOX 261740 TAFBDL TAF KBDL 261740Z 2618/2724 02007KT P6SM VCSH OVC008 FM270000 01004KT 5SM BR OVC008 FM271000 00000KT 2SM BR OVC008 FM271300 00000KT P6SM BKN010 FM271700 16005KT P6SM BKN015=

USA.gov is the U.S. government's official web portal to all federal, state and local government web resources and services.